sensor_id;sensor_type;location;lat;lon;timestamp;P1;durP1;ratioP1;P2;durP2;ratioP2
23222;SDS011;11780;13.904;100.620;2023-07-20T00:00:12;13.38;;;6.88;;
23222;SDS011;11780;13.904;100.620;2023-07-20T00:03:10;9.75;;;6.45;;
23222;SDS011;11780;13.904;100.620;2023-07-20T00:05:48;9.73;;;6.70;;
23222;SDS011;11780;13.904;100.620;2023-07-20T00:08:19;11.63;;;6.07;;
23222;SDS011;11780;13.904;100.620;2023-07-20T00:10:50;12.35;;;7.00;;
23222;SDS011;11780;13.904;100.620;2023-07-20T00:13:20;10.97;;;6.57;;
23222;SDS011;11780;13.904;100.620;2023-07-20T00:15:51;15.37;;;6.70;;
23222;SDS011;11780;13.904;100.620;2023-07-20T00:18:22;13.43;;;6.95;;
23222;SDS011;11780;13.904;100.620;2023-07-20T00:20:52;13.68;;;6.88;;
23222;SDS011;11780;13.904;100.620;2023-07-20T00:23:22;14.60;;;6.93;;
23222;SDS011;11780;13.904;100.620;2023-07-20T00:25:53;12.95;;;6.90;;
23222;SDS011;11780;13.904;100.620;2023-07-20T00:28:23;13.03;;;7.03;;
23222;SDS011;11780;13.904;100.620;2023-07-20T00:30:54;16.37;;;7.30;;
23222;SDS011;11780;13.904;100.620;2023-07-20T00:33:24;16.88;;;7.00;;
23222;SDS011;11780;13.904;100.620;2023-07-20T00:35:55;10.33;;;6.30;;
23222;SDS011;11780;13.904;100.620;2023-07-20T00:38:25;14.13;;;7.03;;
23222;SDS011;11780;13.904;100.620;2023-07-20T00:40:56;17.37;;;7.47;;
23222;SDS011;11780;13.904;100.620;2023-07-20T00:43:26;13.10;;;7.28;;
23222;SDS011;11780;13.904;100.620;2023-07-20T00:45:57;11.80;;;6.73;;
23222;SDS011;11780;13.904;100.620;2023-07-20T00:48:27;11.77;;;6.97;;
23222;SDS011;11780;13.904;100.620;2023-07-20T00:50:59;13.88;;;7.18;;
23222;SDS011;11780;13.904;100.620;2023-07-20T00:53:31;18.55;;;8.35;;
23222;SDS011;11780;13.904;100.620;2023-07-20T00:56:02;14.52;;;7.18;;
23222;SDS011;11780;13.904;100.620;2023-07-20T00:58:34;11.98;;;7.13;;
23222;SDS011;11780;13.904;100.620;2023-07-20T01:01:05;17.73;;;8.43;;
23222;SDS011;11780;13.904;100.620;2023-07-20T01:03:36;16.07;;;7.63;;
23222;SDS011;11780;13.904;100.620;2023-07-20T01:06:09;14.80;;;8.25;;
23222;SDS011;11780;13.904;100.620;2023-07-20T01:11:53;19.10;;;9.05;;
23222;SDS011;11780;13.904;100.620;2023-07-20T01:14:24;17.17;;;9.07;;
23222;SDS011;11780;13.904;100.620;2023-07-20T01:16:55;16.35;;;9.30;;
23222;SDS011;11780;13.904;100.620;2023-07-20T01:19:26;17.55;;;9.77;;
23222;SDS011;11780;13.904;100.620;2023-07-20T01:27:43;16.83;;;8.80;;
23222;SDS011;11780;13.904;100.620;2023-07-20T01:30:25;16.02;;;8.98;;
23222;SDS011;11780;13.904;100.620;2023-07-20T01:33:21;16.08;;;9.35;;
23222;SDS011;11780;13.904;100.620;2023-07-20T01:35:57;15.48;;;9.30;;
23222;SDS011;11780;13.904;100.620;2023-07-20T01:38:29;16.65;;;8.65;;
23222;SDS011;11780;13.904;100.620;2023-07-20T01:41:00;15.47;;;8.40;;
23222;SDS011;11780;13.904;100.620;2023-07-20T01:43:31;17.52;;;7.97;;
23222;SDS011;11780;13.904;100.620;2023-07-20T01:46:02;20.80;;;9.18;;
23222;SDS011;11780;13.904;100.620;2023-07-20T01:48:32;14.10;;;8.98;;
23222;SDS011;11780;13.904;100.620;2023-07-20T01:51:02;14.37;;;8.47;;
23222;SDS011;11780;13.904;100.620;2023-07-20T01:53:33;18.05;;;8.50;;
23222;SDS011;11780;13.904;100.620;2023-07-20T01:56:03;19.92;;;8.60;;
23222;SDS011;11780;13.904;100.620;2023-07-20T01:58:34;17.95;;;8.50;;
23222;SDS011;11780;13.904;100.620;2023-07-20T02:01:05;20.73;;;8.53;;
23222;SDS011;11780;13.904;100.620;2023-07-20T02:03:35;17.03;;;8.10;;
23222;SDS011;11780;13.904;100.620;2023-07-20T02:06:05;15.20;;;8.00;;
23222;SDS011;11780;13.904;100.620;2023-07-20T02:08:36;13.88;;;7.97;;
23222;SDS011;11780;13.904;100.620;2023-07-20T02:11:06;15.30;;;7.97;;
23222;SDS011;11780;13.904;100.620;2023-07-20T02:13:36;16.67;;;7.75;;
23222;SDS011;11780;13.904;100.620;2023-07-20T02:16:07;18.27;;;7.83;;
23222;SDS011;11780;13.904;100.620;2023-07-20T02:18:37;14.13;;;8.02;;
23222;SDS011;11780;13.904;100.620;2023-07-20T02:21:07;18.38;;;9.20;;
23222;SDS011;11780;13.904;100.620;2023-07-20T02:23:38;18.33;;;8.85;;
23222;SDS011;11780;13.904;100.620;2023-07-20T02:26:08;17.63;;;9.40;;
23222;SDS011;11780;13.904;100.620;2023-07-20T02:28:38;15.53;;;8.70;;
23222;SDS011;11780;13.904;100.620;2023-07-20T02:31:11;14.57;;;7.75;;
23222;SDS011;11780;13.904;100.620;2023-07-20T02:33:42;14.87;;;9.00;;
23222;SDS011;11780;13.904;100.620;2023-07-20T02:36:12;16.87;;;7.93;;
23222;SDS011;11780;13.904;100.620;2023-07-20T02:38:42;13.30;;;7.83;;
23222;SDS011;11780;13.904;100.620;2023-07-20T02:41:13;12.90;;;7.22;;
23222;SDS011;11780;13.904;100.620;2023-07-20T02:43:43;13.67;;;7.40;;
23222;SDS011;11780;13.904;100.620;2023-07-20T02:46:13;12.07;;;7.30;;
23222;SDS011;11780;13.904;100.620;2023-07-20T02:48:44;16.15;;;7.65;;
23222;SDS011;11780;13.904;100.620;2023-07-20T02:51:14;14.60;;;7.85;;
23222;SDS011;11780;13.904;100.620;2023-07-20T02:53:45;15.75;;;7.72;;
23222;SDS011;11780;13.904;100.620;2023-07-20T02:56:15;14.25;;;6.57;;
23222;SDS011;11780;13.904;100.620;2023-07-20T02:58:47;13.85;;;7.35;;
23222;SDS011;11780;13.904;100.620;2023-07-20T03:03:49;11.82;;;6.82;;
23222;SDS011;11780;13.904;100.620;2023-07-20T03:06:19;14.57;;;7.00;;
23222;SDS011;11780;13.904;100.620;2023-07-20T03:08:50;15.00;;;6.68;;
23222;SDS011;11780;13.904;100.620;2023-07-20T03:11:22;12.80;;;6.50;;
23222;SDS011;11780;13.904;100.620;2023-07-20T03:13:53;16.10;;;6.72;;
23222;SDS011;11780;13.904;100.620;2023-07-20T03:16:23;11.63;;;6.70;;
23222;SDS011;11780;13.904;100.620;2023-07-20T03:18:54;9.93;;;6.13;;
23222;SDS011;11780;13.904;100.620;2023-07-20T03:21:26;13.70;;;6.13;;
23222;SDS011;11780;13.904;100.620;2023-07-20T03:23:58;11.80;;;6.22;;
23222;SDS011;11780;13.904;100.620;2023-07-20T03:26:29;14.25;;;6.72;;
23222;SDS011;11780;13.904;100.620;2023-07-20T03:29:00;11.17;;;6.10;;
23222;SDS011;11780;13.904;100.620;2023-07-20T03:31:32;12.43;;;6.28;;
23222;SDS011;11780;13.904;100.620;2023-07-20T03:34:03;11.55;;;6.38;;
23222;SDS011;11780;13.904;100.620;2023-07-20T03:36:35;14.90;;;6.88;;
23222;SDS011;11780;13.904;100.620;2023-07-20T03:39:06;15.30;;;7.50;;
23222;SDS011;11780;13.904;100.620;2023-07-20T03:41:36;9.98;;;6.57;;
23222;SDS011;11780;13.904;100.620;2023-07-20T03:44:07;11.87;;;6.17;;
23222;SDS011;11780;13.904;100.620;2023-07-20T03:46:37;12.43;;;6.80;;
23222;SDS011;11780;13.904;100.620;2023-07-20T03:49:07;10.70;;;6.60;;
23222;SDS011;11780;13.904;100.620;2023-07-20T03:51:38;13.05;;;6.72;;
23222;SDS011;11780;13.904;100.620;2023-07-20T03:54:09;12.23;;;6.97;;
23222;SDS011;11780;13.904;100.620;2023-07-20T03:56:39;11.23;;;6.23;;
23222;SDS011;11780;13.904;100.620;2023-07-20T03:59:09;15.23;;;6.63;;
23222;SDS011;11780;13.904;100.620;2023-07-20T04:01:40;11.23;;;6.30;;
23222;SDS011;11780;13.904;100.620;2023-07-20T04:04:10;14.93;;;6.35;;
23222;SDS011;11780;13.904;100.620;2023-07-20T04:06:40;14.13;;;6.47;;
23222;SDS011;11780;13.904;100.620;2023-07-20T04:09:13;12.48;;;6.13;;
23222;SDS011;11780;13.904;100.620;2023-07-20T04:11:44;15.70;;;6.87;;
23222;SDS011;11780;13.904;100.620;2023-07-20T04:14:14;15.68;;;6.85;;
23222;SDS011;11780;13.904;100.620;2023-07-20T04:16:46;15.40;;;6.35;;
23222;SDS011;11780;13.904;100.620;2023-07-20T04:19:17;12.13;;;6.45;;
23222;SDS011;11780;13.904;100.620;2023-07-20T04:21:47;13.13;;;7.23;;
23222;SDS011;11780;13.904;100.620;2023-07-20T04:24:17;13.15;;;6.45;;
23222;SDS011;11780;13.904;100.620;2023-07-20T04:26:48;12.37;;;6.43;;
23222;SDS011;11780;13.904;100.620;2023-07-20T04:29:18;13.20;;;6.90;;
23222;SDS011;11780;13.904;100.620;2023-07-20T04:31:49;14.37;;;7.00;;
23222;SDS011;11780;13.904;100.620;2023-07-20T04:34:19;13.68;;;6.70;;
23222;SDS011;11780;13.904;100.620;2023-07-20T04:36:49;14.32;;;7.70;;
23222;SDS011;11780;13.904;100.620;2023-07-20T04:39:21;14.65;;;6.70;;
23222;SDS011;11780;13.904;100.620;2023-07-20T04:42:05;21.63;;;11.30;;
23222;SDS011;11780;13.904;100.620;2023-07-20T04:44:36;24.43;;;13.83;;
23222;SDS011;11780;13.904;100.620;2023-07-20T04:47:07;24.10;;;13.43;;
23222;SDS011;11780;13.904;100.620;2023-07-20T04:49:38;25.40;;;12.53;;
23222;SDS011;11780;13.904;100.620;2023-07-20T04:52:09;22.67;;;12.77;;
23222;SDS011;11780;13.904;100.620;2023-07-20T04:54:39;21.00;;;11.07;;
23222;SDS011;11780;13.904;100.620;2023-07-20T04:57:11;20.02;;;10.82;;
23222;SDS011;11780;13.904;100.620;2023-07-20T04:59:46;16.58;;;9.75;;
23222;SDS011;11780;13.904;100.620;2023-07-20T05:02:17;21.73;;;10.80;;
23222;SDS011;11780;13.904;100.620;2023-07-20T05:07:18;20.50;;;10.15;;
23222;SDS011;11780;13.904;100.620;2023-07-20T05:09:49;15.20;;;9.50;;
23222;SDS011;11780;13.904;100.620;2023-07-20T05:12:19;15.50;;;8.90;;
23222;SDS011;11780;13.904;100.620;2023-07-20T05:14:50;17.37;;;9.07;;
23222;SDS011;11780;13.904;100.620;2023-07-20T05:17:20;13.25;;;8.68;;
23222;SDS011;11780;13.904;100.620;2023-07-20T05:19:51;14.90;;;9.07;;
23222;SDS011;11780;13.904;100.620;2023-07-20T05:22:22;16.30;;;8.00;;
23222;SDS011;11780;13.904;100.620;2023-07-20T05:24:54;16.92;;;8.38;;
23222;SDS011;11780;13.904;100.620;2023-07-20T05:27:24;16.38;;;8.30;;
23222;SDS011;11780;13.904;100.620;2023-07-20T05:29:54;20.17;;;9.00;;
23222;SDS011;11780;13.904;100.620;2023-07-20T05:32:25;15.88;;;8.82;;
23222;SDS011;11780;13.904;100.620;2023-07-20T05:34:55;15.83;;;8.57;;
23222;SDS011;11780;13.904;100.620;2023-07-20T05:37:26;15.55;;;8.43;;
23222;SDS011;11780;13.904;100.620;2023-07-20T05:39:57;15.48;;;9.20;;
23222;SDS011;11780;13.904;100.620;2023-07-20T05:44:57;22.05;;;9.80;;
23222;SDS011;11780;13.904;100.620;2023-07-20T05:47:27;14.50;;;8.30;;
23222;SDS011;11780;13.904;100.620;2023-07-20T05:49:58;12.63;;;7.82;;
23222;SDS011;11780;13.904;100.620;2023-07-20T05:52:28;18.30;;;8.47;;
23222;SDS011;11780;13.904;100.620;2023-07-20T05:54:59;18.03;;;8.00;;
23222;SDS011;11780;13.904;100.620;2023-07-20T05:57:29;15.77;;;7.60;;
23222;SDS011;11780;13.904;100.620;2023-07-20T06:00:00;17.17;;;7.80;;
23222;SDS011;11780;13.904;100.620;2023-07-20T06:02:37;16.58;;;7.60;;
23222;SDS011;11780;13.904;100.620;2023-07-20T06:05:08;17.92;;;7.63;;
23222;SDS011;11780;13.904;100.620;2023-07-20T06:07:39;15.80;;;7.80;;
23222;SDS011;11780;13.904;100.620;2023-07-20T06:10:09;18.63;;;7.50;;
23222;SDS011;11780;13.904;100.620;2023-07-20T06:12:40;13.80;;;6.70;;
23222;SDS011;11780;13.904;100.620;2023-07-20T06:15:32;15.20;;;7.13;;
23222;SDS011;11780;13.904;100.620;2023-07-20T06:18:08;12.45;;;7.07;;
23222;SDS011;11780;13.904;100.620;2023-07-20T06:20:38;16.53;;;7.27;;
23222;SDS011;11780;13.904;100.620;2023-07-20T06:23:09;15.18;;;7.07;;
23222;SDS011;11780;13.904;100.620;2023-07-20T06:25:39;16.80;;;6.97;;
23222;SDS011;11780;13.904;100.620;2023-07-20T06:28:10;12.70;;;6.85;;
23222;SDS011;11780;13.904;100.620;2023-07-20T06:30:40;13.77;;;7.23;;
23222;SDS011;11780;13.904;100.620;2023-07-20T06:33:10;10.17;;;7.30;;
23222;SDS011;11780;13.904;100.620;2023-07-20T06:35:41;13.93;;;6.67;;
23222;SDS011;11780;13.904;100.620;2023-07-20T06:38:12;15.23;;;7.25;;
23222;SDS011;11780;13.904;100.620;2023-07-20T06:40:51;13.30;;;6.80;;
23222;SDS011;11780;13.904;100.620;2023-07-20T06:43:22;16.42;;;7.75;;
23222;SDS011;11780;13.904;100.620;2023-07-20T06:45:55;15.30;;;8.00;;
23222;SDS011;11780;13.904;100.620;2023-07-20T06:48:25;14.87;;;8.03;;
23222;SDS011;11780;13.904;100.620;2023-07-20T06:50:56;22.83;;;9.43;;
23222;SDS011;11780;13.904;100.620;2023-07-20T06:53:26;20.55;;;9.93;;
23222;SDS011;11780;13.904;100.620;2023-07-20T06:55:56;20.42;;;9.88;;
23222;SDS011;11780;13.904;100.620;2023-07-20T06:58:27;24.30;;;10.30;;
23222;SDS011;11780;13.904;100.620;2023-07-20T07:00:57;15.98;;;9.48;;
23222;SDS011;11780;13.904;100.620;2023-07-20T07:03:27;17.47;;;9.30;;
23222;SDS011;11780;13.904;100.620;2023-07-20T07:06:02;18.70;;;8.13;;
23222;SDS011;11780;13.904;100.620;2023-07-20T07:08:33;16.55;;;7.80;;
23222;SDS011;11780;13.904;100.620;2023-07-20T07:11:04;14.48;;;7.82;;
23222;SDS011;11780;13.904;100.620;2023-07-20T07:13:34;18.25;;;7.93;;
23222;SDS011;11780;13.904;100.620;2023-07-20T07:16:05;14.60;;;7.75;;
23222;SDS011;11780;13.904;100.620;2023-07-20T07:18:36;13.77;;;6.72;;
23222;SDS011;11780;13.904;100.620;2023-07-20T07:21:06;12.27;;;6.73;;
23222;SDS011;11780;13.904;100.620;2023-07-20T07:23:37;15.33;;;6.73;;
23222;SDS011;11780;13.904;100.620;2023-07-20T07:26:08;10.77;;;5.93;;
23222;SDS011;11780;13.904;100.620;2023-07-20T07:28:39;13.13;;;6.20;;
23222;SDS011;11780;13.904;100.620;2023-07-20T07:31:10;15.23;;;6.85;;
23222;SDS011;11780;13.904;100.620;2023-07-20T07:33:40;13.50;;;6.70;;
23222;SDS011;11780;13.904;100.620;2023-07-20T07:36:11;13.20;;;6.73;;
23222;SDS011;11780;13.904;100.620;2023-07-20T07:38:41;12.07;;;6.57;;
23222;SDS011;11780;13.904;100.620;2023-07-20T07:41:32;9.93;;;6.03;;
23222;SDS011;11780;13.904;100.620;2023-07-20T07:44:02;14.50;;;6.17;;
23222;SDS011;11780;13.904;100.620;2023-07-20T07:46:33;12.20;;;6.33;;
23222;SDS011;11780;13.904;100.620;2023-07-20T07:49:03;13.10;;;6.30;;
23222;SDS011;11780;13.904;100.620;2023-07-20T07:51:33;9.27;;;6.57;;
23222;SDS011;11780;13.904;100.620;2023-07-20T07:54:04;12.47;;;6.37;;
23222;SDS011;11780;13.904;100.620;2023-07-20T07:56:35;10.45;;;6.55;;
23222;SDS011;11780;13.904;100.620;2023-07-20T07:59:05;14.30;;;5.93;;
23222;SDS011;11780;13.904;100.620;2023-07-20T08:01:35;13.48;;;6.05;;
23222;SDS011;11780;13.904;100.620;2023-07-20T08:04:06;16.58;;;6.28;;
23222;SDS011;11780;13.904;100.620;2023-07-20T08:09:07;8.23;;;6.00;;
23222;SDS011;11780;13.904;100.620;2023-07-20T08:11:39;10.18;;;5.82;;
23222;SDS011;11780;13.904;100.620;2023-07-20T08:14:09;8.70;;;6.10;;
23222;SDS011;11780;13.904;100.620;2023-07-20T08:16:40;9.77;;;5.82;;
23222;SDS011;11780;13.904;100.620;2023-07-20T08:19:10;9.90;;;5.93;;
23222;SDS011;11780;13.904;100.620;2023-07-20T08:21:41;11.27;;;6.45;;
23222;SDS011;11780;13.904;100.620;2023-07-20T08:24:11;11.87;;;6.40;;
23222;SDS011;11780;13.904;100.620;2023-07-20T08:26:41;11.20;;;6.97;;
23222;SDS011;11780;13.904;100.620;2023-07-20T08:29:12;10.60;;;6.80;;
23222;SDS011;11780;13.904;100.620;2023-07-20T08:31:43;9.43;;;6.38;;
23222;SDS011;11780;13.904;100.620;2023-07-20T08:34:13;10.57;;;6.88;;
23222;SDS011;11780;13.904;100.620;2023-07-20T08:36:58;10.90;;;6.32;;
23222;SDS011;11780;13.904;100.620;2023-07-20T08:39:28;10.05;;;6.55;;
23222;SDS011;11780;13.904;100.620;2023-07-20T08:41:59;11.68;;;6.60;;
23222;SDS011;11780;13.904;100.620;2023-07-20T08:44:35;11.75;;;6.78;;
23222;SDS011;11780;13.904;100.620;2023-07-20T08:47:08;11.52;;;7.05;;
23222;SDS011;11780;13.904;100.620;2023-07-20T08:49:40;12.23;;;7.45;;
23222;SDS011;11780;13.904;100.620;2023-07-20T08:52:11;11.73;;;7.43;;
23222;SDS011;11780;13.904;100.620;2023-07-20T08:57:12;11.40;;;6.85;;
23222;SDS011;11780;13.904;100.620;2023-07-20T08:59:46;9.27;;;6.82;;
23222;SDS011;11780;13.904;100.620;2023-07-20T09:02:17;12.68;;;7.20;;
23222;SDS011;11780;13.904;100.620;2023-07-20T09:04:49;12.95;;;7.35;;
23222;SDS011;11780;13.904;100.620;2023-07-20T09:07:19;13.82;;;6.72;;
23222;SDS011;11780;13.904;100.620;2023-07-20T09:09:50;26.20;;;10.57;;
23222;SDS011;11780;13.904;100.620;2023-07-20T09:12:20;21.40;;;11.00;;
23222;SDS011;11780;13.904;100.620;2023-07-20T09:14:51;20.30;;;9.57;;
23222;SDS011;11780;13.904;100.620;2023-07-20T09:17:21;18.05;;;9.13;;
23222;SDS011;11780;13.904;100.620;2023-07-20T09:19:56;13.55;;;8.05;;
23222;SDS011;11780;13.904;100.620;2023-07-20T09:22:30;14.50;;;7.70;;
23222;SDS011;11780;13.904;100.620;2023-07-20T09:25:01;19.63;;;7.88;;
23222;SDS011;11780;13.904;100.620;2023-07-20T09:27:35;9.88;;;6.40;;
23222;SDS011;11780;13.904;100.620;2023-07-20T09:30:10;11.60;;;6.60;;
23222;SDS011;11780;13.904;100.620;2023-07-20T09:32:48;10.45;;;5.80;;
23222;SDS011;11780;13.904;100.620;2023-07-20T09:35:22;8.25;;;5.15;;
23222;SDS011;11780;13.904;100.620;2023-07-20T09:38:07;9.73;;;5.68;;
23222;SDS011;11780;13.904;100.620;2023-07-20T09:40:41;8.43;;;4.63;;
23222;SDS011;11780;13.904;100.620;2023-07-20T09:43:15;7.68;;;4.55;;
23222;SDS011;11780;13.904;100.620;2023-07-20T09:45:49;6.72;;;4.68;;
23222;SDS011;11780;13.904;100.620;2023-07-20T09:48:23;6.53;;;4.40;;
23222;SDS011;11780;13.904;100.620;2023-07-20T09:50:58;10.27;;;4.78;;
23222;SDS011;11780;13.904;100.620;2023-07-20T09:53:29;8.30;;;4.90;;
23222;SDS011;11780;13.904;100.620;2023-07-20T09:56:01;8.50;;;4.57;;
23222;SDS011;11780;13.904;100.620;2023-07-20T09:58:32;6.90;;;4.25;;
23222;SDS011;11780;13.904;100.620;2023-07-20T10:01:04;6.55;;;4.10;;
23222;SDS011;11780;13.904;100.620;2023-07-20T10:03:36;5.88;;;4.30;;
23222;SDS011;11780;13.904;100.620;2023-07-20T10:06:08;6.95;;;4.10;;
23222;SDS011;11780;13.904;100.620;2023-07-20T10:08:42;5.72;;;4.35;;
23222;SDS011;11780;13.904;100.620;2023-07-20T10:11:19;6.20;;;4.32;;
23222;SDS011;11780;13.904;100.620;2023-07-20T10:13:54;5.88;;;4.63;;
23222;SDS011;11780;13.904;100.620;2023-07-20T10:16:29;6.47;;;4.40;;
23222;SDS011;11780;13.904;100.620;2023-07-20T10:19:11;6.82;;;4.30;;
23222;SDS011;11780;13.904;100.620;2023-07-20T10:21:59;6.78;;;4.68;;
23222;SDS011;11780;13.904;100.620;2023-07-20T10:24:36;6.93;;;4.82;;
23222;SDS011;11780;13.904;100.620;2023-07-20T10:27:08;5.78;;;4.25;;
23222;SDS011;11780;13.904;100.620;2023-07-20T10:29:39;7.20;;;5.10;;
23222;SDS011;11780;13.904;100.620;2023-07-20T10:32:10;6.13;;;4.25;;
23222;SDS011;11780;13.904;100.620;2023-07-20T10:34:41;6.53;;;4.10;;
23222;SDS011;11780;13.904;100.620;2023-07-20T10:37:13;6.10;;;4.20;;
23222;SDS011;11780;13.904;100.620;2023-07-20T10:40:28;8.82;;;5.13;;
23222;SDS011;11780;13.904;100.620;2023-07-20T10:43:03;8.55;;;5.00;;
23222;SDS011;11780;13.904;100.620;2023-07-20T10:45:39;10.93;;;6.68;;
23222;SDS011;11780;13.904;100.620;2023-07-20T10:50:45;8.52;;;6.43;;
23222;SDS011;11780;13.904;100.620;2023-07-20T10:53:36;8.70;;;7.03;;
23222;SDS011;11780;13.904;100.620;2023-07-20T10:56:11;10.40;;;6.83;;
23222;SDS011;11780;13.904;100.620;2023-07-20T10:58:43;11.55;;;7.07;;
23222;SDS011;11780;13.904;100.620;2023-07-20T11:01:14;10.13;;;7.20;;
23222;SDS011;11780;13.904;100.620;2023-07-20T11:03:49;8.85;;;6.63;;
23222;SDS011;11780;13.904;100.620;2023-07-20T11:11:47;11.18;;;7.90;;
23222;SDS011;11780;13.904;100.620;2023-07-20T11:14:24;11.30;;;8.45;;
23222;SDS011;11780;13.904;100.620;2023-07-20T11:16:55;13.75;;;8.00;;
23222;SDS011;11780;13.904;100.620;2023-07-20T11:19:40;14.05;;;9.38;;
23222;SDS011;11780;13.904;100.620;2023-07-20T11:22:14;11.20;;;8.35;;
23222;SDS011;11780;13.904;100.620;2023-07-20T11:24:47;13.00;;;8.48;;
23222;SDS011;11780;13.904;100.620;2023-07-20T11:27:21;13.98;;;8.40;;
23222;SDS011;11780;13.904;100.620;2023-07-20T11:29:54;13.98;;;9.30;;
23222;SDS011;11780;13.904;100.620;2023-07-20T11:32:25;14.50;;;8.35;;
23222;SDS011;11780;13.904;100.620;2023-07-20T11:34:56;11.30;;;8.20;;
23222;SDS011;11780;13.904;100.620;2023-07-20T11:37:26;14.50;;;8.55;;
23222;SDS011;11780;13.904;100.620;2023-07-20T11:39:57;13.65;;;8.60;;
23222;SDS011;11780;13.904;100.620;2023-07-20T11:42:28;10.17;;;8.53;;
23222;SDS011;11780;13.904;100.620;2023-07-20T11:45:02;34.20;;;22.48;;
23222;SDS011;11780;13.904;100.620;2023-07-20T11:47:34;32.63;;;20.98;;
23222;SDS011;11780;13.904;100.620;2023-07-20T11:50:11;49.40;;;30.73;;
23222;SDS011;11780;13.904;100.620;2023-07-20T11:52:43;28.65;;;17.30;;
23222;SDS011;11780;13.904;100.620;2023-07-20T11:55:14;28.08;;;15.63;;
23222;SDS011;11780;13.904;100.620;2023-07-20T11:58:05;31.17;;;17.65;;
23222;SDS011;11780;13.904;100.620;2023-07-20T12:00:38;22.83;;;14.15;;
23222;SDS011;11780;13.904;100.620;2023-07-20T12:03:09;28.85;;;14.40;;
23222;SDS011;11780;13.904;100.620;2023-07-20T12:05:41;25.02;;;13.25;;
23222;SDS011;11780;13.904;100.620;2023-07-20T12:08:27;22.92;;;12.32;;
23222;SDS011;11780;13.904;100.620;2023-07-20T12:10:58;13.73;;;9.83;;
23222;SDS011;11780;13.904;100.620;2023-07-20T13:17:35;12.10;;;8.63;;
23222;SDS011;11780;13.904;100.620;2023-07-20T13:20:10;12.98;;;8.45;;
23222;SDS011;11780;13.904;100.620;2023-07-20T13:22:41;13.90;;;8.35;;
23222;SDS011;11780;13.904;100.620;2023-07-20T13:25:12;17.45;;;8.25;;
23222;SDS011;11780;13.904;100.620;2023-07-20T13:27:42;12.50;;;8.77;;
23222;SDS011;11780;13.904;100.620;2023-07-20T13:30:13;13.83;;;8.40;;
23222;SDS011;11780;13.904;100.620;2023-07-20T13:32:46;11.35;;;8.25;;
23222;SDS011;11780;13.904;100.620;2023-07-20T13:35:17;16.35;;;8.93;;
23222;SDS011;11780;13.904;100.620;2023-07-20T13:37:47;14.40;;;9.13;;
23222;SDS011;11780;13.904;100.620;2023-07-20T13:40:19;16.75;;;9.02;;
23222;SDS011;11780;13.904;100.620;2023-07-20T13:42:49;14.50;;;8.10;;
23222;SDS011;11780;13.904;100.620;2023-07-20T13:45:20;14.02;;;9.18;;
23222;SDS011;11780;13.904;100.620;2023-07-20T13:47:51;16.30;;;9.73;;
23222;SDS011;11780;13.904;100.620;2023-07-20T13:50:21;19.10;;;9.20;;
23222;SDS011;11780;13.904;100.620;2023-07-20T13:53:06;14.40;;;9.63;;
23222;SDS011;11780;13.904;100.620;2023-07-20T13:55:39;14.20;;;8.85;;
23222;SDS011;11780;13.904;100.620;2023-07-20T13:58:12;16.33;;;8.63;;
23222;SDS011;11780;13.904;100.620;2023-07-20T14:00:43;11.53;;;8.50;;
23222;SDS011;11780;13.904;100.620;2023-07-20T14:03:13;14.68;;;9.90;;
23222;SDS011;11780;13.904;100.620;2023-07-20T14:05:46;14.93;;;9.15;;
23222;SDS011;11780;13.904;100.620;2023-07-20T14:08:21;14.93;;;9.30;;
23222;SDS011;11780;13.904;100.620;2023-07-20T14:10:51;13.67;;;8.07;;
23222;SDS011;11780;13.904;100.620;2023-07-20T14:13:25;15.23;;;8.18;;
23222;SDS011;11780;13.904;100.620;2023-07-20T14:16:12;11.27;;;7.97;;
23222;SDS011;11780;13.904;100.620;2023-07-20T14:18:43;11.23;;;7.93;;
23222;SDS011;11780;13.904;100.620;2023-07-20T14:21:17;12.02;;;8.13;;
23222;SDS011;11780;13.904;100.620;2023-07-20T14:23:50;13.75;;;8.00;;
23222;SDS011;11780;13.904;100.620;2023-07-20T14:26:22;11.90;;;7.80;;
23222;SDS011;11780;13.904;100.620;2023-07-20T14:28:53;16.50;;;8.23;;
23222;SDS011;11780;13.904;100.620;2023-07-20T14:31:25;14.68;;;8.02;;
23222;SDS011;11780;13.904;100.620;2023-07-20T14:33:55;11.47;;;8.73;;
23222;SDS011;11780;13.904;100.620;2023-07-20T14:36:26;11.93;;;7.70;;
23222;SDS011;11780;13.904;100.620;2023-07-20T14:39:00;12.43;;;7.93;;
23222;SDS011;11780;13.904;100.620;2023-07-20T14:41:30;10.73;;;7.35;;
23222;SDS011;11780;13.904;100.620;2023-07-20T14:44:01;13.35;;;7.47;;
23222;SDS011;11780;13.904;100.620;2023-07-20T14:46:32;11.00;;;7.20;;
23222;SDS011;11780;13.904;100.620;2023-07-20T14:49:02;14.70;;;7.47;;
23222;SDS011;11780;13.904;100.620;2023-07-20T14:51:32;11.43;;;8.00;;
23222;SDS011;11780;13.904;100.620;2023-07-20T14:54:05;12.32;;;7.90;;
23222;SDS011;11780;13.904;100.620;2023-07-20T14:56:37;10.82;;;6.80;;
23222;SDS011;11780;13.904;100.620;2023-07-20T14:59:09;10.98;;;6.70;;
23222;SDS011;11780;13.904;100.620;2023-07-20T15:01:39;10.90;;;6.17;;
23222;SDS011;11780;13.904;100.620;2023-07-20T15:04:10;20.57;;;7.53;;
23222;SDS011;11780;13.904;100.620;2023-07-20T15:06:41;11.38;;;6.10;;
23222;SDS011;11780;13.904;100.620;2023-07-20T15:11:42;10.80;;;6.75;;
23222;SDS011;11780;13.904;100.620;2023-07-20T15:14:13;11.90;;;6.10;;
23222;SDS011;11780;13.904;100.620;2023-07-20T15:16:43;10.77;;;6.20;;
23222;SDS011;11780;13.904;100.620;2023-07-20T15:19:15;9.35;;;6.35;;
23222;SDS011;11780;13.904;100.620;2023-07-20T15:21:46;9.47;;;6.13;;
23222;SDS011;11780;13.904;100.620;2023-07-20T15:24:17;9.00;;;5.53;;
23222;SDS011;11780;13.904;100.620;2023-07-20T15:26:48;14.03;;;6.30;;
23222;SDS011;11780;13.904;100.620;2023-07-20T15:29:18;9.98;;;5.47;;
23222;SDS011;11780;13.904;100.620;2023-07-20T15:31:52;9.30;;;5.95;;
23222;SDS011;11780;13.904;100.620;2023-07-20T15:34:25;11.50;;;5.72;;
23222;SDS011;11780;13.904;100.620;2023-07-20T15:36:56;8.60;;;5.67;;
23222;SDS011;11780;13.904;100.620;2023-07-20T15:39:26;8.02;;;6.03;;
23222;SDS011;11780;13.904;100.620;2023-07-20T15:41:57;12.20;;;6.07;;
23222;SDS011;11780;13.904;100.620;2023-07-20T15:44:27;9.87;;;5.93;;
23222;SDS011;11780;13.904;100.620;2023-07-20T15:49:29;10.95;;;6.55;;
23222;SDS011;11780;13.904;100.620;2023-07-20T15:52:00;10.45;;;6.63;;
23222;SDS011;11780;13.904;100.620;2023-07-20T15:54:31;11.10;;;7.18;;
23222;SDS011;11780;13.904;100.620;2023-07-20T15:57:01;20.23;;;10.45;;
23222;SDS011;11780;13.904;100.620;2023-07-20T15:59:33;18.38;;;7.90;;
23222;SDS011;11780;13.904;100.620;2023-07-20T16:04:35;12.73;;;6.70;;
23222;SDS011;11780;13.904;100.620;2023-07-20T16:07:06;9.20;;;6.13;;
23222;SDS011;11780;13.904;100.620;2023-07-20T16:09:36;11.10;;;6.37;;
23222;SDS011;11780;13.904;100.620;2023-07-20T16:12:07;10.83;;;6.70;;
23222;SDS011;11780;13.904;100.620;2023-07-20T16:14:37;8.30;;;5.60;;
23222;SDS011;11780;13.904;100.620;2023-07-20T16:17:12;9.25;;;5.88;;
23222;SDS011;11780;13.904;100.620;2023-07-20T16:19:42;10.77;;;6.05;;